Time;durP1;ratioP1;P1;durP2;ratioP2;P2;SDS_P1;SDS_P2;PMS_P1;PMS_P2;Temp;Humidity;BMP_temperature;BMP_pressure;BME280_temperature;BME280_humidity;BME280_pressure;Samples;Min_cycle;Max_cycle;Signal;HPM_P1;HPM_P2
2023/02/23 00:01:28;;;;;;;15.02;11.50;;;22.30;38.10;;;;;;5052253;28;20095;-62
2023/02/23 00:03:57;;;;;;;14.93;10.85;;;22.40;38.20;;;;;;5052978;28;20047;-64
2023/02/23 00:06:28;;;;;;;18.05;12.32;;;22.30;38.20;;;;;;5051220;28;20053;-62
2023/02/23 00:08:56;;;;;;;15.75;11.45;;;22.30;38.10;;;;;;5050880;28;20050;-62
2023/02/23 00:11:25;;;;;;;16.58;11.82;;;22.30;38.10;;;;;;5052067;28;20041;-62
2023/02/23 00:13:55;;;;;;;17.27;12.20;;;22.30;38.70;;;;;;5052735;28;20049;-62
2023/02/23 00:16:24;;;;;;;14.80;11.38;;;22.30;38.10;;;;;;5050531;28;20110;-62
2023/02/23 00:18:59;;;;;;;16.77;11.90;;;22.30;38.10;;;;;;5052448;28;20470;-63
2023/02/23 00:21:34;;;;;;;15.05;11.05;;;22.30;38.10;;;;;;5051672;28;20049;-62
2023/02/23 00:24:07;;;;;;;16.50;12.63;;;22.30;38.10;;;;;;5051467;28;20424;-63
2023/02/23 00:26:36;;;;;;;15.80;12.00;;;22.30;38.10;;;;;;5051981;28;20503;-63
2023/02/23 00:29:06;;;;;;;16.15;11.50;;;22.30;38.10;;;;;;5050533;28;20147;-62
2023/02/23 00:31:33;;;;;;;15.35;11.73;;;22.30;38.10;;;;;;5051495;28;20465;-62
2023/02/23 00:34:03;;;;;;;16.05;11.90;;;22.30;38.10;;;;;;5051806;28;20099;-62
2023/02/23 00:36:32;;;;;;;17.05;11.48;;;22.30;38.10;;;;;;5051067;28;20504;-63
2023/02/23 00:39:20;;;;;;;12.63;10.47;;;22.20;38.00;;;;;;5050754;28;20497;-62
2023/02/23 00:41:48;;;;;;;16.55;11.73;;;22.30;38.10;;;;;;5050544;28;20049;-62
2023/02/23 00:44:16;;;;;;;15.20;11.70;;;22.30;38.10;;;;;;5050845;28;20051;-62
2023/02/23 00:46:47;;;;;;;15.38;10.93;;;22.20;38.00;;;;;;5052148;28;20408;-62
2023/02/23 00:49:15;;;;;;;14.30;11.07;;;22.20;38.00;;;;;;5051865;28;20063;-63
2023/02/23 00:51:43;;;;;;;15.55;10.48;;;22.30;38.10;;;;;;5052882;28;20082;-62
2023/02/23 00:54:13;;;;;;;14.20;10.95;;;22.20;38.00;;;;;;5051984;28;20072;-63
2023/02/23 00:56:40;;;;;;;13.95;10.55;;;22.20;38.60;;;;;;5050685;28;20085;-62
2023/02/23 00:59:08;;;;;;;17.88;10.95;;;22.20;38.10;;;;;;5051288;28;20052;-63
2023/02/23 01:01:37;;;;;;;16.08;11.27;;;22.20;38.10;;;;;;5050996;28;20052;-62
2023/02/23 01:04:06;;;;;;;15.13;11.00;;;22.20;38.10;;;;;;5051570;28;20543;-62
2023/02/23 01:06:36;;;;;;;13.65;10.45;;;22.20;38.00;;;;;;5051788;28;20053;-63
2023/02/23 01:09:08;;;;;;;13.07;10.80;;;22.20;38.00;;;;;;5052681;28;20091;-62
2023/02/23 01:11:35;;;;;;;13.73;10.48;;;22.20;38.00;;;;;;5052183;28;20082;-63
2023/02/23 01:14:02;;;;;;;12.63;10.38;;;22.20;38.00;;;;;;5051920;28;20053;-62
2023/02/23 01:16:31;;;;;;;12.18;9.88;;;22.20;38.00;;;;;;5051404;28;20045;-63
2023/02/23 01:19:02;;;;;;;13.00;10.40;;;22.20;38.00;;;;;;5050519;28;20055;-62
2023/02/23 01:21:35;;;;;;;12.30;9.93;;;22.20;37.90;;;;;;5051829;28;20300;-62
2023/02/23 01:24:03;;;;;;;12.77;10.25;;;22.20;37.90;;;;;;5051677;28;20408;-62
2023/02/23 01:26:35;;;;;;;14.05;10.07;;;22.20;37.90;;;;;;5051255;28;20041;-62
2023/02/23 01:29:07;;;;;;;12.40;9.93;;;22.20;37.90;;;;;;5053662;28;20489;-62
2023/02/23 01:31:36;;;;;;;13.43;10.35;;;22.20;37.90;;;;;;5055319;28;20106;-62
2023/02/23 01:34:04;;;;;;;12.18;9.90;;;22.20;37.90;;;;;;5055595;28;20083;-62
2023/02/23 01:36:40;;;;;;;14.27;10.88;;;22.20;37.90;;;;;;5054489;28;20098;-62
2023/02/23 01:39:12;;;;;;;13.25;10.23;;;22.20;37.90;;;;;;5055062;28;20874;-62
2023/02/23 01:41:41;;;;;;;13.30;9.90;;;22.20;37.90;;;;;;5054554;28;20580;-62
2023/02/23 01:44:49;;;;;;;12.13;10.00;;;22.20;37.90;;;;;;5055177;28;20044;-62
2023/02/23 01:47:19;;;;;;;13.50;10.10;;;22.10;37.80;;;;;;5039223;28;20049;-62
2023/02/23 01:49:47;;;;;;;14.50;10.05;;;22.10;37.80;;;;;;5055327;28;20080;-62
2023/02/23 01:52:16;;;;;;;11.18;9.55;;;22.10;37.80;;;;;;5055355;28;20045;-62
2023/02/23 01:54:49;;;;;;;14.27;9.52;;;22.10;37.80;;;;;;5055296;28;20048;-62
2023/02/23 01:57:21;;;;;;;13.40;10.23;;;22.10;37.80;;;;;;5054595;28;20048;-62
2023/02/23 01:59:49;;;;;;;12.68;9.65;;;22.10;37.80;;;;;;5055055;28;20128;-62
2023/02/23 02:02:31;;;;;;;11.02;9.25;;;22.10;37.80;;;;;;5055087;28;20044;-62
2023/02/23 02:05:00;;;;;;;11.63;9.43;;;22.10;37.80;;;;;;5055097;28;20051;-62
2023/02/23 02:07:29;;;;;;;14.63;10.10;;;22.10;37.70;;;;;;5054890;28;20056;-62
2023/02/23 02:12:50;;;;;;;12.93;9.15;;;22.10;37.70;;;;;;5054273;28;20056;-62
2023/02/23 02:15:21;;;;;;;13.07;9.55;;;22.10;37.80;;;;;;5053881;28;20048;-63
2023/02/23 02:18:17;;;;;;;11.63;8.77;;;22.10;37.70;;;;;;5054611;28;20044;-62
2023/02/23 02:21:15;;;;;;;14.55;9.55;;;22.10;37.70;;;;;;5053569;28;20056;-63
2023/02/23 02:24:16;;;;;;;12.18;9.15;;;22.10;37.70;;;;;;5038782;28;20053;-63
2023/02/23 02:27:20;;;;;;;12.90;9.52;;;22.10;37.70;;;;;;5054178;28;20055;-62
2023/02/23 02:30:12;;;;;;;11.60;9.27;;;22.10;37.70;;;;;;5053598;28;20048;-62
2023/02/23 02:33:09;;;;;;;12.25;9.65;;;22.10;37.70;;;;;;5053788;28;20055;-62
2023/02/23 02:36:00;;;;;;;11.98;8.90;;;22.10;37.70;;;;;;5053634;28;20053;-63
2023/02/23 02:38:57;;;;;;;12.02;9.18;;;22.00;37.70;;;;;;5053842;28;20040;-63
2023/02/23 02:41:55;;;;;;;10.32;8.40;;;22.00;38.30;;;;;;5051168;28;20055;-62
2023/02/23 02:44:36;;;;;;;11.52;8.70;;;22.00;37.70;;;;;;5053397;28;20078;-63
2023/02/23 02:47:11;;;;;;;12.18;8.88;;;22.00;37.70;;;;;;5053791;28;20063;-62
2023/02/23 02:49:59;;;;;;;10.80;8.63;;;22.00;37.70;;;;;;5053295;28;20052;-62
2023/02/23 02:52:39;;;;;;;11.73;9.43;;;22.00;37.70;;;;;;5053192;28;20063;-63
2023/02/23 02:55:22;;;;;;;13.50;9.45;;;22.00;37.70;;;;;;5054008;28;20049;-62
2023/02/23 02:57:52;;;;;;;11.48;8.55;;;22.00;37.70;;;;;;5053761;28;20044;-62
2023/02/23 04:17:36;;;;;;;8.80;7.13;;;21.90;37.40;;;;;;5052228;28;20045;-63
2023/02/23 04:20:05;;;;;;;10.15;7.60;;;21.90;37.40;;;;;;5052763;28;20051;-63
2023/02/23 04:22:34;;;;;;;10.40;7.68;;;21.90;37.40;;;;;;5052357;28;20115;-63
2023/02/23 04:25:04;;;;;;;9.30;7.63;;;21.90;37.40;;;;;;5051862;28;20401;-63
2023/02/23 04:27:31;;;;;;;9.95;7.78;;;21.90;37.40;;;;;;5051346;28;20057;-63
2023/02/23 04:29:59;;;;;;;8.73;7.07;;;21.90;37.40;;;;;;5051836;28;20044;-63
2023/02/23 04:32:26;;;;;;;8.35;7.15;;;21.90;37.40;;;;;;5052506;28;20053;-63
2023/02/23 04:34:53;;;;;;;8.77;6.80;;;21.90;37.40;;;;;;5051319;28;20045;-63
2023/02/23 04:37:20;;;;;;;7.95;6.43;;;21.90;37.40;;;;;;5051978;28;20049;-62
2023/02/23 04:39:49;;;;;;;9.80;7.00;;;21.90;37.40;;;;;;5046728;28;20048;-63
2023/02/23 04:42:17;;;;;;;9.32;7.22;;;21.90;37.40;;;;;;5043693;28;20048;-62
2023/02/23 04:44:45;;;;;;;9.35;7.10;;;21.90;37.40;;;;;;5049079;28;20080;-62
2023/02/23 04:47:14;;;;;;;9.43;7.32;;;21.90;37.30;;;;;;5052430;28;20053;-62
2023/02/23 04:49:42;;;;;;;8.65;6.65;;;21.90;37.30;;;;;;5050868;28;20588;-63
2023/02/23 04:52:09;;;;;;;8.45;6.70;;;21.90;37.30;;;;;;5051627;28;20055;-62
2023/02/23 04:54:38;;;;;;;7.90;6.38;;;21.90;37.30;;;;;;5051022;28;20088;-63
2023/02/23 04:57:05;;;;;;;8.05;6.55;;;21.90;37.30;;;;;;5051845;28;20048;-62
2023/02/23 04:59:33;;;;;;;6.90;6.15;;;21.80;37.30;;;;;;5051539;28;20139;-62
2023/02/23 05:02:00;;;;;;;7.47;6.53;;;21.90;37.30;;;;;;5052459;28;20095;-62
2023/02/23 05:04:28;;;;;;;8.35;6.53;;;21.90;37.90;;;;;;5056232;28;20056;-62
2023/02/23 05:06:55;;;;;;;7.22;6.18;;;21.80;37.30;;;;;;5055545;28;20132;-63
2023/02/23 05:09:22;;;;;;;6.88;5.82;;;21.80;37.30;;;;;;5055877;28;20060;-62
2023/02/23 05:11:49;;;;;;;8.27;6.82;;;21.80;37.30;;;;;;5054973;28;20124;-63
2023/02/23 05:14:16;;;;;;;9.32;6.45;;;21.80;37.30;;;;;;5055175;28;20489;-62
2023/02/23 05:16:43;;;;;;;6.72;5.60;;;21.80;37.20;;;;;;5050362;28;20049;-62
2023/02/23 05:19:11;;;;;;;9.38;6.63;;;21.90;37.20;;;;;;5054108;28;20055;-62
2023/02/23 05:21:38;;;;;;;6.97;5.70;;;21.90;37.20;;;;;;5054738;28;20040;-62
2023/02/23 05:24:05;;;;;;;7.88;6.53;;;21.90;37.20;;;;;;5055000;28;20049;-62
2023/02/23 05:26:33;;;;;;;8.68;6.18;;;21.90;37.20;;;;;;5052744;28;20128;-63
2023/02/23 05:29:00;;;;;;;8.73;6.05;;;21.90;37.10;;;;;;5054226;28;20049;-63
2023/02/23 05:31:28;;;;;;;6.65;5.70;;;21.90;37.70;;;;;;5054177;28;20052;-64
2023/02/23 05:33:55;;;;;;;7.55;5.97;;;21.90;37.10;;;;;;5054880;28;20045;-63
2023/02/23 05:36:23;;;;;;;7.20;6.10;;;21.90;37.10;;;;;;5054742;28;20053;-62
2023/02/23 05:38:50;;;;;;;8.93;6.20;;;21.90;36.90;;;;;;5054609;28;20075;-63
2023/02/23 05:41:20;;;;;;;7.70;6.20;;;21.90;36.80;;;;;;5055228;28;20473;-63
2023/02/23 05:43:52;;;;;;;8.75;6.35;;;21.80;36.70;;;;;;5055340;28;20056;-62
2023/02/23 05:46:23;;;;;;;8.18;6.28;;;21.80;36.80;;;;;;5053414;28;20470;-62
2023/02/23 05:48:55;;;;;;;7.00;5.90;;;21.80;36.80;;;;;;5054605;28;20052;-63
2023/02/23 05:51:23;;;;;;;8.45;6.28;;;21.80;36.80;;;;;;5055019;28;20055;-62
2023/02/23 05:53:50;;;;;;;10.02;6.72;;;21.80;36.80;;;;;;5050908;28;20045;-62
2023/02/23 05:56:19;;;;;;;9.30;6.93;;;21.80;36.80;;;;;;5051256;28;20805;-63
2023/02/23 05:58:48;;;;;;;8.52;6.25;;;21.80;36.60;;;;;;5052410;28;20045;-62
2023/02/23 06:01:16;;;;;;;8.85;6.22;;;21.80;36.60;;;;;;5053763;28;20508;-62
2023/02/23 06:03:45;;;;;;;8.60;6.07;;;21.80;36.50;;;;;;5034692;28;20414;-62
2023/02/23 06:06:12;;;;;;;9.50;6.68;;;21.80;36.40;;;;;;5046006;28;20092;-62
2023/02/23 06:08:40;;;;;;;8.73;7.72;;;21.90;36.50;;;;;;5050674;28;20512;-62
2023/02/23 06:11:08;;;;;;;9.07;7.28;;;21.90;36.40;;;;;;5053823;28;20382;-63
2023/02/23 06:13:35;;;;;;;8.93;6.75;;;21.90;36.40;;;;;;5052416;28;20437;-61
2023/02/23 06:16:03;;;;;;;9.57;6.80;;;22.00;36.40;;;;;;5050074;28;20132;-63
2023/02/23 06:18:32;;;;;;;9.23;6.77;;;22.00;36.40;;;;;;5052244;28;20045;-67
2023/02/23 06:21:00;;;;;;;11.77;7.88;;;22.00;36.40;;;;;;5052532;28;20048;-66
2023/02/23 06:23:28;;;;;;;8.88;6.90;;;22.10;36.40;;;;;;5042055;28;20086;-66
2023/02/23 06:25:56;;;;;;;11.55;7.88;;;22.10;36.40;;;;;;5042122;28;20077;-66
2023/02/23 06:28:24;;;;;;;10.73;7.95;;;22.20;36.30;;;;;;5042668;28;20135;-67
2023/02/23 06:30:52;;;;;;;13.40;8.13;;;22.30;36.30;;;;;;5044587;28;20401;-68
2023/02/23 06:33:20;;;;;;;11.60;8.05;;;22.30;36.20;;;;;;5046726;28;20136;-65
2023/02/23 06:35:47;;;;;;;10.57;7.68;;;22.40;36.20;;;;;;5038880;28;20169;-65
2023/02/23 06:38:14;;;;;;;11.70;7.63;;;22.40;36.10;;;;;;5044372;28;20481;-69
2023/02/23 06:40:42;;;;;;;9.23;6.90;;;22.40;36.00;;;;;;5048812;28;20044;-67
2023/02/23 06:43:10;;;;;;;11.38;8.07;;;22.50;36.00;;;;;;5042775;28;20477;-68
2023/02/23 06:45:38;;;;;;;10.73;7.88;;;22.60;36.30;;;;;;5043761;28;20044;-71
2023/02/23 06:48:05;;;;;;;9.95;7.72;;;22.60;36.60;;;;;;5045541;28;20409;-71
2023/02/23 06:50:32;;;;;;;12.68;8.73;;;22.60;37.20;;;;;;5049008;28;20431;-72
2023/02/23 06:52:59;;;;;;;11.55;8.55;;;22.70;36.60;;;;;;5044340;28;20055;-71
2023/02/23 06:55:27;;;;;;;11.13;8.25;;;22.70;36.60;;;;;;5041695;28;20084;-70
2023/02/23 06:57:54;;;;;;;13.65;9.32;;;22.80;36.60;;;;;;5041901;28;20046;-67
2023/02/23 07:00:21;;;;;;;13.50;9.00;;;22.80;36.40;;;;;;5042000;28;20069;-65
2023/02/23 07:02:48;;;;;;;12.82;8.63;;;22.80;36.10;;;;;;5041094;28;20501;-65
2023/02/23 07:05:16;;;;;;;11.63;8.90;;;22.90;36.10;;;;;;5051215;28;20068;-67
2023/02/23 07:07:44;;;;;;;11.10;8.13;;;22.90;35.90;;;;;;5044105;28;20135;-67
2023/02/23 07:10:11;;;;;;;10.88;8.70;;;23.00;36.00;;;;;;5043330;28;20049;-68
2023/02/23 07:12:38;;;;;;;13.55;9.15;;;23.00;35.90;;;;;;5043224;28;20136;-65
2023/02/23 07:15:06;;;;;;;15.10;10.02;;;23.10;35.90;;;;;;5041130;28;20045;-66
2023/02/23 07:17:34;;;;;;;13.57;10.13;;;23.10;35.80;;;;;;5047832;28;20049;-66
2023/02/23 07:20:02;;;;;;;12.85;8.90;;;23.10;35.70;;;;;;5045183;28;20144;-65
2023/02/23 07:22:29;;;;;;;14.15;9.70;;;23.20;35.70;;;;;;5040033;28;20065;-66
2023/02/23 07:24:57;;;;;;;14.40;9.57;;;23.30;35.70;;;;;;5047668;28;20501;-66
2023/02/23 07:27:24;;;;;;;12.40;9.35;;;23.30;35.60;;;;;;5043667;28;20059;-66
2023/02/23 07:29:52;;;;;;;15.55;10.82;;;23.40;35.60;;;;;;5042741;28;20187;-65
2023/02/23 07:32:19;;;;;;;16.13;10.73;;;23.40;35.60;;;;;;5046887;28;20052;-65
2023/02/23 07:34:46;;;;;;;16.90;10.95;;;23.40;35.50;;;;;;5042545;28;20059;-63
2023/02/23 07:37:14;;;;;;;15.48;10.30;;;23.50;36.00;;;;;;5044673;28;20047;-66
2023/02/23 07:39:41;;;;;;;18.15;10.52;;;23.50;35.40;;;;;;5044876;28;20116;-66
2023/02/23 07:42:09;;;;;;;17.85;10.45;;;23.60;35.30;;;;;;5036411;28;20067;-65
2023/02/23 07:44:37;;;;;;;14.82;11.00;;;23.60;35.30;;;;;;5045667;28;20045;-65
2023/02/23 07:47:05;;;;;;;15.27;11.00;;;23.70;35.30;;;;;;5039171;28;20048;-66
2023/02/23 07:49:33;;;;;;;15.63;10.13;;;23.70;35.50;;;;;;5040683;28;20131;-69
2023/02/23 07:52:00;;;;;;;14.38;10.43;;;23.70;35.70;;;;;;5050586;28;20055;-65
2023/02/23 07:54:27;;;;;;;15.35;10.55;;;23.70;35.90;;;;;;5047177;28;20063;-66
2023/02/23 07:56:55;;;;;;;14.70;10.18;;;23.80;36.40;;;;;;5046596;28;20065;-66
2023/02/23 07:59:22;;;;;;;17.80;11.13;;;23.90;35.90;;;;;;5052595;28;20147;-70
2023/02/23 08:01:50;;;;;;;16.90;10.75;;;23.90;36.00;;;;;;5057148;28;20099;-67
2023/02/23 08:04:18;;;;;;;17.80;10.90;;;23.90;35.90;;;;;;5047752;28;20147;-66
2023/02/23 08:06:46;;;;;;;15.18;9.98;;;24.00;35.90;;;;;;5045680;28;20045;-66
2023/02/23 08:09:13;;;;;;;19.40;10.13;;;24.00;35.80;;;;;;5048095;28;20140;-71
2023/02/23 08:11:40;;;;;;;15.27;10.25;;;24.10;35.90;;;;;;5057320;28;20052;-67
2023/02/23 08:14:09;;;;;;;15.80;10.23;;;24.10;35.90;;;;;;5043084;28;20044;-68
2023/02/23 08:16:36;;;;;;;16.42;10.05;;;24.20;35.90;;;;;;5034781;28;20486;-67
2023/02/23 08:19:04;;;;;;;15.65;10.30;;;24.30;35.90;;;;;;5038713;28;20044;-67
2023/02/23 08:21:31;;;;;;;17.10;10.85;;;24.30;35.90;;;;;;5040714;28;20481;-66
2023/02/23 08:23:59;;;;;;;17.60;10.27;;;24.40;35.80;;;;;;5043541;28;20135;-66
2023/02/23 08:26:26;;;;;;;14.98;9.98;;;24.40;35.70;;;;;;5036030;28;20049;-67
2023/02/23 08:28:54;;;;;;;17.00;10.30;;;24.40;36.20;;;;;;5040241;28;20177;-67
2023/02/23 08:31:22;;;;;;;15.27;9.93;;;24.50;35.70;;;;;;5044052;28;20124;-66
2023/02/23 08:33:52;;;;;;;15.02;9.30;;;24.50;35.60;;;;;;5037130;28;20977;-65
2023/02/23 08:36:19;;;;;;;16.52;8.98;;;24.60;35.60;;;;;;5044798;28;20045;-67
2023/02/23 08:38:47;;;;;;;14.98;9.38;;;24.60;35.60;;;;;;5048388;28;20049;-66
2023/02/23 08:41:14;;;;;;;16.75;9.45;;;24.70;35.50;;;;;;5044898;28;20414;-66
2023/02/23 08:43:42;;;;;;;12.65;9.13;;;24.70;35.40;;;;;;5043179;28;20083;-67
2023/02/23 08:46:10;;;;;;;13.00;8.25;;;24.80;35.40;;;;;;5041696;28;20465;-66
2023/02/23 08:48:39;;;;;;;12.18;8.95;;;24.80;35.40;;;;;;5042475;28;20044;-66
2023/02/23 08:51:07;;;;;;;11.38;8.27;;;24.80;35.40;;;;;;5043983;28;20071;-67
2023/02/23 08:53:35;;;;;;;14.48;8.60;;;24.90;35.40;;;;;;5041837;28;20050;-67
2023/02/23 08:56:05;;;;;;;12.65;8.02;;;24.90;35.40;;;;;;5048779;28;20541;-69
2023/02/23 08:58:34;;;;;;;13.25;8.75;;;25.00;35.30;;;;;;5042342;28;20052;-70
2023/02/23 09:01:02;;;;;;;12.65;8.27;;;25.10;35.40;;;;;;5052124;28;20048;-66
2023/02/23 09:03:30;;;;;;;14.57;9.13;;;25.10;35.20;;;;;;5042468;28;20042;-65
2023/02/23 09:06:04;;;;;;;13.48;9.10;;;25.10;35.00;;;;;;5048880;28;20048;-67
2023/02/23 09:08:31;;;;;;;12.18;7.00;;;25.20;34.90;;;;;;5042327;28;20037;-70
2023/02/23 09:10:59;;;;;;;11.82;7.65;;;25.20;34.60;;;;;;5050231;28;20054;-69
2023/02/23 09:13:26;;;;;;;14.68;7.85;;;25.30;34.60;;;;;;5043951;28;20127;-67
2023/02/23 09:15:53;;;;;;;10.90;7.00;;;25.20;34.50;;;;;;5046404;28;20049;-68
2023/02/23 09:18:22;;;;;;;9.93;6.75;;;25.30;34.50;;;;;;5046877;28;20049;-69
2023/02/23 09:20:50;;;;;;;9.85;7.22;;;25.30;34.70;;;;;;5041455;28;20152;-70
2023/02/23 09:23:17;;;;;;;12.77;8.00;;;25.40;34.70;;;;;;5044154;28;20057;-70
2023/02/23 09:25:45;;;;;;;10.18;6.82;;;25.40;34.60;;;;;;5044172;28;20049;-70
2023/02/23 09:28:14;;;;;;;7.22;6.20;;;25.40;34.60;;;;;;5043356;28;20052;-70
2023/02/23 09:30:42;;;;;;;9.45;6.55;;;25.40;34.50;;;;;;5040652;28;20079;-67
2023/02/23 09:33:11;;;;;;;9.27;6.93;;;25.40;34.50;;;;;;5040989;28;20051;-66
2023/02/23 09:35:39;;;;;;;13.02;7.20;;;25.40;34.40;;;;;;5045244;28;20055;-66
2023/02/23 09:38:07;;;;;;;9.88;6.78;;;25.40;34.30;;;;;;5042743;28;20390;-66
2023/02/23 09:40:48;;;;;;;8.43;6.38;;;25.40;34.20;;;;;;5044050;28;20056;-66
2023/02/23 09:43:29;;;;;;;9.15;6.57;;;25.50;34.20;;;;;;5043123;28;20049;-67
2023/02/23 09:46:37;;;;;;;10.80;6.70;;;25.40;34.20;;;;;;5047099;28;20140;-68
2023/02/23 09:49:12;;;;;;;8.75;5.70;;;25.50;34.50;;;;;;5046098;28;20134;-67
2023/02/23 09:51:45;;;;;;;10.77;6.03;;;25.50;34.60;;;;;;5044792;28;20053;-69
2023/02/23 09:54:15;;;;;;;7.90;6.13;;;25.50;34.60;;;;;;5043343;28;20478;-66
2023/02/23 09:56:50;;;;;;;11.00;6.82;;;25.60;34.70;;;;;;5044636;28;20420;-67
2023/02/23 09:59:20;;;;;;;7.65;5.80;;;25.60;34.50;;;;;;5051666;28;20045;-62
2023/02/23 10:02:04;;;;;;;7.20;5.80;;;25.60;34.30;;;;;;5044295;28;20049;-65
2023/02/23 10:04:45;;;;;;;8.88;5.85;;;25.70;34.50;;;;;;5041013;28;20045;-68
2023/02/23 10:07:37;;;;;;;9.10;5.95;;;25.70;34.60;;;;;;5044511;28;20047;-65
2023/02/23 10:10:39;;;;;;;9.75;6.05;;;25.70;34.60;;;;;;5046841;28;20089;-65
2023/02/23 10:13:28;;;;;;;8.07;5.57;;;25.70;34.70;;;;;;5038439;28;20118;-64
2023/02/23 10:16:20;;;;;;;8.50;5.20;;;25.70;34.50;;;;;;5045428;28;20041;-68
2023/02/23 10:19:05;;;;;;;7.45;5.70;;;25.70;34.50;;;;;;5041204;28;20044;-67
2023/02/23 10:21:38;;;;;;;8.27;5.70;;;25.80;34.60;;;;;;5041567;28;20041;-65
2023/02/23 10:24:17;;;;;;;11.00;5.70;;;25.80;34.30;;;;;;5043001;28;20391;-65
2023/02/23 10:26:53;;;;;;;6.63;5.30;;;25.90;34.50;;;;;;5043703;28;20603;-64
2023/02/23 10:29:29;;;;;;;7.55;5.25;;;25.90;34.40;;;;;;5041863;28;20053;-66
2023/02/23 10:32:05;;;;;;;6.25;5.00;;;25.90;35.00;;;;;;5046532;28;20481;-66
2023/02/23 10:34:34;;;;;;;11.00;5.00;;;25.90;34.30;;;;;;5047613;28;20040;-63
2023/02/23 10:37:04;;;;;;;6.25;5.18;;;26.00;34.30;;;;;;5040495;28;20044;-66
2023/02/23 10:39:33;;;;;;;7.65;5.40;;;26.00;34.20;;;;;;5034477;28;20049;-63
2023/02/23 10:42:04;;;;;;;8.95;5.25;;;26.00;34.30;;;;;;5036977;28;20073;-63
2023/02/23 10:44:32;;;;;;;5.63;4.50;;;26.00;34.30;;;;;;5042505;28;20053;-64
2023/02/23 10:47:04;;;;;;;8.27;5.55;;;26.00;34.20;;;;;;5043374;28;20048;-64
2023/02/23 10:49:42;;;;;;;7.32;4.65;;;26.10;34.30;;;;;;5044779;28;20548;-64
2023/02/23 10:52:17;;;;;;;7.05;5.00;;;26.10;34.20;;;;;;5045144;28;20049;-64
2023/02/23 10:54:46;;;;;;;4.93;4.43;;;26.10;34.20;;;;;;5037332;28;20563;-66
2023/02/23 10:57:27;;;;;;;6.40;5.00;;;26.10;34.20;;;;;;5041176;28;20148;-66
2023/02/23 11:00:26;;;;;;;5.97;4.20;;;26.10;34.10;;;;;;5043388;28;20159;-65
2023/02/23 11:02:57;;;;;;;6.82;4.22;;;26.20;34.10;;;;;;5041247;28;20073;-64
2023/02/23 11:05:45;;;;;;;6.80;4.50;;;26.20;34.10;;;;;;5039321;28;20103;-65
2023/02/23 11:08:23;;;;;;;8.60;4.97;;;26.20;33.90;;;;;;5042251;28;20045;-65
2023/02/23 11:10:57;;;;;;;7.25;4.85;;;26.20;33.80;;;;;;5040398;28;20414;-65
2023/02/23 11:13:28;;;;;;;6.40;5.18;;;26.20;33.70;;;;;;5051047;28;20072;-65
2023/02/23 11:16:14;;;;;;;5.25;4.20;;;26.10;33.50;;;;;;5050092;28;20463;-65
2023/02/23 11:18:55;;;;;;;5.95;4.30;;;26.20;33.60;;;;;;5041381;28;20497;-65
2023/02/23 11:21:26;;;;;;;5.70;4.45;;;26.10;33.60;;;;;;5053391;28;20068;-65
2023/02/23 11:23:57;;;;;;;5.78;4.03;;;26.10;33.60;;;;;;5049312;28;20049;-65
2023/02/23 11:26:31;;;;;;;5.47;3.92;;;26.10;33.60;;;;;;5052780;28;20051;-65
2023/02/23 11:29:04;;;;;;;5.47;4.60;;;26.10;33.50;;;;;;5051617;28;20128;-65
2023/02/23 11:31:33;;;;;;;6.40;4.45;;;26.10;33.40;;;;;;5059220;28;20071;-65
2023/02/23 11:34:03;;;;;;;5.13;4.03;;;26.10;33.40;;;;;;5044651;28;20091;-66
2023/02/23 11:36:34;;;;;;;7.30;4.20;;;26.10;33.40;;;;;;5056946;28;20412;-65
2023/02/23 11:39:18;;;;;;;6.63;3.92;;;26.00;33.40;;;;;;5047751;28;20396;-64
2023/02/23 11:41:45;;;;;;;5.97;3.65;;;26.00;33.20;;;;;;5045436;28;20492;-65
2023/02/23 11:44:22;;;;;;;6.88;4.35;;;26.00;33.30;;;;;;5048503;28;20084;-64
2023/02/23 11:46:50;;;;;;;5.13;3.80;;;26.00;33.40;;;;;;5050204;28;20044;-64
2023/02/23 11:49:25;;;;;;;4.43;4.00;;;26.00;33.30;;;;;;5050559;28;20055;-64
2023/02/23 11:51:53;;;;;;;4.15;3.45;;;26.00;33.30;;;;;;5053048;28;20529;-64
2023/02/23 11:54:29;;;;;;;4.22;3.60;;;26.10;33.40;;;;;;5048836;28;20584;-65
2023/02/23 11:56:57;;;;;;;5.05;3.58;;;26.10;33.20;;;;;;5049585;28;20056;-66
2023/02/23 11:59:30;;;;;;;5.63;3.33;;;26.10;33.30;;;;;;5044208;28;20426;-65
2023/02/23 12:02:22;;;;;;;7.43;3.55;;;26.00;33.40;;;;;;5046775;28;20036;-63
2023/02/23 12:05:08;;;;;;;4.25;3.55;;;26.00;33.40;;;;;;5043589;28;20057;-59
2023/02/23 12:08:14;;;;;;;3.60;2.95;;;26.00;33.30;;;;;;5045608;28;20498;-60
2023/02/23 12:10:46;;;;;;;3.92;3.08;;;26.00;33.20;;;;;;5046639;28;20198;-60
2023/02/23 12:13:46;;;;;;;3.42;2.80;;;26.00;33.10;;;;;;5048538;28;20143;-59
2023/02/23 12:16:25;;;;;;;5.32;3.15;;;26.00;33.10;;;;;;5044124;28;20508;-60
2023/02/23 12:19:05;;;;;;;3.35;2.65;;;26.00;33.00;;;;;;5042794;28;20077;-60
2023/02/23 12:21:49;;;;;;;2.95;2.72;;;26.00;32.90;;;;;;5052089;28;20159;-60
2023/02/23 12:24:52;;;;;;;5.20;3.35;;;26.10;33.00;;;;;;5044632;28;20404;-60
2023/02/23 12:27:36;;;;;;;4.07;3.13;;;26.10;33.00;;;;;;5050531;28;20079;-61
2023/02/23 12:30:24;;;;;;;4.47;3.22;;;26.10;32.90;;;;;;5042226;28;20099;-60
2023/02/23 12:33:05;;;;;;;5.10;2.58;;;26.10;32.90;;;;;;5040140;28;20110;-60
2023/02/23 12:35:51;;;;;;;3.30;2.45;;;26.10;32.80;;;;;;5051960;28;20071;-60
2023/02/23 12:38:45;;;;;;;4.25;3.08;;;26.10;32.80;;;;;;5043662;28;20148;-60
2023/02/23 12:41:17;;;;;;;3.45;2.70;;;26.10;32.80;;;;;;5045065;28;20132;-61
2023/02/23 12:43:51;;;;;;;3.95;2.97;;;26.10;32.80;;;;;;5044044;28;20171;-60
2023/02/23 12:46:25;;;;;;;2.88;2.65;;;26.10;32.80;;;;;;5049891;28;20045;-61
2023/02/23 12:49:21;;;;;;;2.78;2.28;;;26.10;32.80;;;;;;5046673;28;20048;-60
2023/02/23 12:52:11;;;;;;;2.65;2.40;;;26.10;32.90;;;;;;5053128;28;20128;-60
2023/02/23 12:54:38;;;;;;;3.33;2.45;;;26.10;32.80;;;;;;5051553;28;20072;-61
2023/02/23 12:57:37;;;;;;;3.28;2.50;;;26.10;32.90;;;;;;5035246;28;20232;-62
2023/02/23 13:00:38;;;;;;;2.70;2.50;;;26.00;32.90;;;;;;5044689;28;20123;-61
2023/02/23 13:03:42;;;;;;;3.28;2.92;;;26.00;32.90;;;;;;5045785;28;20144;-61
2023/02/23 13:06:21;;;;;;;3.65;2.63;;;26.00;33.10;;;;;;5041791;28;20118;-62
2023/02/23 13:09:20;;;;;;;2.55;2.25;;;26.00;33.00;;;;;;5048070;28;20080;-62
2023/02/23 13:12:25;;;;;;;3.17;2.40;;;26.00;32.90;;;;;;5047660;28;20390;-59
2023/02/23 13:15:17;;;;;;;3.15;2.42;;;26.00;33.00;;;;;;5042862;28;20053;-61
2023/02/23 13:17:57;;;;;;;2.83;2.20;;;26.00;33.10;;;;;;5046904;28;20049;-60
2023/02/23 13:20:54;;;;;;;2.88;2.45;;;26.00;33.10;;;;;;5043079;28;20167;-60
2023/02/23 13:23:49;;;;;;;2.53;2.08;;;26.00;33.00;;;;;;5046510;28;20128;-61
2023/02/23 13:26:27;;;;;;;4.72;2.78;;;25.90;33.00;;;;;;5048182;28;20056;-63
2023/02/23 13:29:11;;;;;;;7.47;3.35;;;25.90;33.00;;;;;;5053701;28;20123;-61
2023/02/23 13:31:40;;;;;;;3.72;2.90;;;25.90;33.40;;;;;;5050125;28;20050;-65
2023/02/23 13:34:20;;;;;;;4.22;2.53;;;25.90;33.40;;;;;;5052600;28;20484;-64
2023/02/23 13:36:49;;;;;;;2.83;2.55;;;25.90;33.30;;;;;;5052335;28;20045;-63
2023/02/23 13:39:47;;;;;;;2.80;2.60;;;25.80;33.10;;;;;;5050348;28;20045;-64
2023/02/23 13:42:33;;;;;;;4.13;2.63;;;25.90;33.20;;;;;;5049885;28;20064;-63
2023/02/23 13:45:24;;;;;;;3.85;2.95;;;25.80;33.10;;;;;;5050652;28;20051;-68
2023/02/23 13:48:18;;;;;;;2.58;1.70;;;25.80;33.00;;;;;;5044787;28;20079;-62
2023/02/23 13:51:25;;;;;;;10.95;2.25;;;25.80;33.00;;;;;;5048075;28;20135;-61
2023/02/23 13:54:21;;;;;;;2.33;2.13;;;25.80;33.00;;;;;;5048842;28;20040;-63
2023/02/23 13:57:00;;;;;;;2.30;2.10;;;25.80;33.00;;;;;;5042778;28;20049;-63
2023/02/23 13:59:32;;;;;;;4.93;2.65;;;25.80;33.00;;;;;;5047021;28;20132;-64
2023/02/23 14:02:05;;;;;;;2.97;2.28;;;25.80;33.00;;;;;;5045772;28;20045;-64
2023/02/23 14:04:41;;;;;;;2.50;2.30;;;25.80;33.10;;;;;;5042399;28;20127;-63
2023/02/23 14:07:23;;;;;;;3.35;2.13;;;25.80;33.10;;;;;;5053074;28;20045;-62
2023/02/23 14:09:55;;;;;;;2.85;2.15;;;25.80;33.00;;;;;;5042447;28;20465;-65
2023/02/23 14:12:34;;;;;;;3.08;2.25;;;25.80;33.10;;;;;;5046548;28;20474;-65
2023/02/23 14:15:28;;;;;;;2.63;2.03;;;25.80;33.10;;;;;;5048989;28;20048;-61
2023/02/23 14:17:58;;;;;;;3.53;2.35;;;25.80;33.10;;;;;;5041660;28;20059;-63
2023/02/23 14:20:59;;;;;;;2.28;2.08;;;25.80;33.30;;;;;;5041541;28;20047;-63
2023/02/23 14:23:35;;;;;;;3.22;2.47;;;25.80;33.70;;;;;;5042821;28;20432;-63
2023/02/23 14:26:17;;;;;;;4.50;2.28;;;25.80;33.70;;;;;;5041843;28;20103;-63
2023/02/23 14:29:23;;;;;;;4.07;2.78;;;25.80;33.70;;;;;;5043015;28;20561;-65
2023/02/23 14:32:14;;;;;;;2.95;2.40;;;25.80;33.80;;;;;;5045133;28;20056;-62
2023/02/23 14:34:55;;;;;;;4.95;3.03;;;25.80;33.80;;;;;;5047224;28;20037;-61
2023/02/23 14:37:39;;;;;;;2.40;2.10;;;25.80;33.80;;;;;;5049311;28;20528;-63